sensor_id;sensor_type;location;lat;lon;timestamp;pressure;altitude;pressure_sealevel;temperature;humidity
61361;BME280;47232;47.506;18.936;2023-03-03T00:00:42;98497.20;;;4.65;59.70
61361;BME280;47232;47.506;18.936;2023-03-03T00:03:09;98498.27;;;4.65;59.77
61361;BME280;47232;47.506;18.936;2023-03-03T00:05:35;98499.55;;;4.66;59.93
61361;BME280;47232;47.506;18.936;2023-03-03T00:08:04;98493.36;;;4.66;60.03
61361;BME280;47232;47.506;18.936;2023-03-03T00:10:29;98495.16;;;4.66;60.15
61361;BME280;47232;47.506;18.936;2023-03-03T00:12:55;98497.03;;;4.66;60.36
61361;BME280;47232;47.506;18.936;2023-03-03T00:15:22;98495.39;;;4.65;60.29
61361;BME280;47232;47.506;18.936;2023-03-03T00:17:48;98490.27;;;4.65;60.58
61361;BME280;47232;47.506;18.936;2023-03-03T00:20:47;98486.47;;;4.63;60.88
61361;BME280;47232;47.506;18.936;2023-03-03T00:23:13;98488.13;;;4.62;60.67
61361;BME280;47232;47.506;18.936;2023-03-03T00:25:42;98483.17;;;4.61;60.65
61361;BME280;47232;47.506;18.936;2023-03-03T00:28:19;98482.05;;;4.60;60.87
61361;BME280;47232;47.506;18.936;2023-03-03T00:30:46;98482.53;;;4.59;60.82
61361;BME280;47232;47.506;18.936;2023-03-03T00:33:14;98477.04;;;4.58;60.70
61361;BME280;47232;47.506;18.936;2023-03-03T00:35:43;98475.55;;;4.58;60.70
61361;BME280;47232;47.506;18.936;2023-03-03T00:38:10;98481.37;;;4.57;61.06
61361;BME280;47232;47.506;18.936;2023-03-03T00:40:37;98479.39;;;4.56;61.16
61361;BME280;47232;47.506;18.936;2023-03-03T00:43:23;98477.95;;;4.54;61.00
61361;BME280;47232;47.506;18.936;2023-03-03T00:46:01;98475.98;;;4.54;61.29
61361;BME280;47232;47.506;18.936;2023-03-03T00:48:49;98470.00;;;4.52;61.20
61361;BME280;47232;47.506;18.936;2023-03-03T00:53:47;98467.72;;;4.50;61.59
61361;BME280;47232;47.506;18.936;2023-03-03T00:56:14;98472.23;;;4.48;61.78
61361;BME280;47232;47.506;18.936;2023-03-03T00:58:41;98467.65;;;4.46;61.61
61361;BME280;47232;47.506;18.936;2023-03-03T01:01:08;98466.80;;;4.45;61.55
61361;BME280;47232;47.506;18.936;2023-03-03T01:03:33;98461.30;;;4.44;61.73
61361;BME280;47232;47.506;18.936;2023-03-03T01:05:59;98460.08;;;4.42;61.66
61361;BME280;47232;47.506;18.936;2023-03-03T01:08:24;98461.42;;;4.41;62.01
61361;BME280;47232;47.506;18.936;2023-03-03T01:10:52;98459.54;;;4.39;61.84
61361;BME280;47232;47.506;18.936;2023-03-03T01:13:26;98459.06;;;4.39;61.93
61361;BME280;47232;47.506;18.936;2023-03-03T01:15:53;98452.94;;;4.39;62.34
61361;BME280;47232;47.506;18.936;2023-03-03T01:18:19;98453.48;;;4.37;62.27
61361;BME280;47232;47.506;18.936;2023-03-03T01:20:44;98450.77;;;4.37;62.61
61361;BME280;47232;47.506;18.936;2023-03-03T01:23:10;98452.35;;;4.36;62.65
61361;BME280;47232;47.506;18.936;2023-03-03T01:25:35;98448.45;;;4.36;62.30
61361;BME280;47232;47.506;18.936;2023-03-03T01:28:01;98447.23;;;4.35;62.51
61361;BME280;47232;47.506;18.936;2023-03-03T01:30:28;98446.33;;;4.35;62.58
61361;BME280;47232;47.506;18.936;2023-03-03T01:32:54;98446.22;;;4.35;62.50
61361;BME280;47232;47.506;18.936;2023-03-03T01:35:19;98442.51;;;4.37;62.80
61361;BME280;47232;47.506;18.936;2023-03-03T01:37:47;98436.73;;;4.41;62.63
61361;BME280;47232;47.506;18.936;2023-03-03T01:40:14;98436.46;;;4.45;63.06
61361;BME280;47232;47.506;18.936;2023-03-03T01:42:40;98432.99;;;4.51;63.14
61361;BME280;47232;47.506;18.936;2023-03-03T01:50:33;98426.89;;;4.75;63.18
61361;BME280;47232;47.506;18.936;2023-03-03T01:53:00;98425.23;;;4.81;63.37
61361;BME280;47232;47.506;18.936;2023-03-03T01:55:32;98424.05;;;4.86;63.44
61361;BME280;47232;47.506;18.936;2023-03-03T01:58:16;98423.87;;;4.91;63.51
61361;BME280;47232;47.506;18.936;2023-03-03T02:00:56;98425.02;;;4.95;63.19
61361;BME280;47232;47.506;18.936;2023-03-03T02:03:24;98424.01;;;4.97;63.28
61361;BME280;47232;47.506;18.936;2023-03-03T02:05:52;98420.11;;;4.99;63.46
61361;BME280;47232;47.506;18.936;2023-03-03T02:08:20;98420.11;;;4.99;63.49
61361;BME280;47232;47.506;18.936;2023-03-03T02:10:48;98421.16;;;4.98;63.46
61361;BME280;47232;47.506;18.936;2023-03-03T02:13:35;98421.13;;;4.97;63.55
61361;BME280;47232;47.506;18.936;2023-03-03T02:16:21;98415.90;;;4.97;63.35
61361;BME280;47232;47.506;18.936;2023-03-03T02:19:30;98417.18;;;4.97;63.61
61361;BME280;47232;47.506;18.936;2023-03-03T02:22:31;98413.33;;;4.97;63.91
61361;BME280;47232;47.506;18.936;2023-03-03T02:25:18;98415.15;;;4.97;64.06
61361;BME280;47232;47.506;18.936;2023-03-03T02:28:24;98413.83;;;4.96;64.01
61361;BME280;47232;47.506;18.936;2023-03-03T02:31:12;98414.62;;;4.97;64.01
61361;BME280;47232;47.506;18.936;2023-03-03T02:33:47;98413.65;;;4.97;64.27
61361;BME280;47232;47.506;18.936;2023-03-03T02:36:16;98412.05;;;4.97;64.30
61361;BME280;47232;47.506;18.936;2023-03-03T02:44:20;98413.11;;;4.98;64.43
61361;BME280;47232;47.506;18.936;2023-03-03T02:47:14;98407.30;;;4.99;64.37
61361;BME280;47232;47.506;18.936;2023-03-03T02:49:48;98402.40;;;4.99;64.60
61361;BME280;47232;47.506;18.936;2023-03-03T02:52:14;98403.89;;;4.99;64.77
61361;BME280;47232;47.506;18.936;2023-03-03T02:55:19;98402.23;;;5.00;65.05
61361;BME280;47232;47.506;18.936;2023-03-03T02:57:45;98395.30;;;5.00;65.02
61361;BME280;47232;47.506;18.936;2023-03-03T03:00:38;98395.98;;;5.00;65.14
61361;BME280;47232;47.506;18.936;2023-03-03T03:03:03;98392.52;;;5.00;64.88
61361;BME280;47232;47.506;18.936;2023-03-03T03:05:30;98391.39;;;5.01;64.85
61361;BME280;47232;47.506;18.936;2023-03-03T03:07:55;98393.94;;;5.02;65.06
61361;BME280;47232;47.506;18.936;2023-03-03T03:10:22;98387.59;;;5.03;65.22
61361;BME280;47232;47.506;18.936;2023-03-03T03:12:47;98384.98;;;5.04;65.29
61361;BME280;47232;47.506;18.936;2023-03-03T03:15:12;98385.35;;;5.04;65.39
61361;BME280;47232;47.506;18.936;2023-03-03T03:17:39;98384.80;;;5.05;65.34
61361;BME280;47232;47.506;18.936;2023-03-03T03:20:05;98382.52;;;5.07;65.55
61361;BME280;47232;47.506;18.936;2023-03-03T03:22:31;98383.89;;;5.08;65.52
61361;BME280;47232;47.506;18.936;2023-03-03T03:25:04;98376.25;;;5.09;65.44
61361;BME280;47232;47.506;18.936;2023-03-03T03:27:29;98380.68;;;5.12;65.63
61361;BME280;47232;47.506;18.936;2023-03-03T03:29:55;98378.39;;;5.12;65.84
61361;BME280;47232;47.506;18.936;2023-03-03T03:32:21;98377.95;;;5.13;65.54
61361;BME280;47232;47.506;18.936;2023-03-03T03:34:46;98380.07;;;5.14;65.80
61361;BME280;47232;47.506;18.936;2023-03-03T03:37:13;98372.61;;;5.15;65.66
61361;BME280;47232;47.506;18.936;2023-03-03T03:39:39;98374.25;;;5.17;65.90
61361;BME280;47232;47.506;18.936;2023-03-03T03:42:04;98375.14;;;5.18;65.90
61361;BME280;47232;47.506;18.936;2023-03-03T03:44:30;98365.86;;;5.19;65.84
61361;BME280;47232;47.506;18.936;2023-03-03T03:46:56;98362.86;;;5.21;65.69
61361;BME280;47232;47.506;18.936;2023-03-03T03:49:22;98361.05;;;5.22;65.57
61361;BME280;47232;47.506;18.936;2023-03-03T03:51:48;98361.36;;;5.23;65.99
61361;BME280;47232;47.506;18.936;2023-03-03T03:54:14;98360.28;;;5.24;65.86
61361;BME280;47232;47.506;18.936;2023-03-03T03:56:39;98357.45;;;5.25;65.98
61361;BME280;47232;47.506;18.936;2023-03-03T03:59:10;98354.77;;;5.26;65.91
61361;BME280;47232;47.506;18.936;2023-03-03T04:01:36;98351.80;;;5.27;65.84
61361;BME280;47232;47.506;18.936;2023-03-03T04:04:02;98354.77;;;5.27;65.81
61361;BME280;47232;47.506;18.936;2023-03-03T04:06:29;98352.79;;;5.28;65.96
61361;BME280;47232;47.506;18.936;2023-03-03T04:08:55;98351.83;;;5.29;65.87
61361;BME280;47232;47.506;18.936;2023-03-03T04:11:20;98352.98;;;5.29;66.04
61361;BME280;47232;47.506;18.936;2023-03-03T04:13:47;98357.52;;;5.30;66.06
61361;BME280;47232;47.506;18.936;2023-03-03T04:16:13;98348.88;;;5.30;65.93
61361;BME280;47232;47.506;18.936;2023-03-03T04:18:38;98347.60;;;5.32;65.91
61361;BME280;47232;47.506;18.936;2023-03-03T04:21:10;98348.44;;;5.33;66.00
61361;BME280;47232;47.506;18.936;2023-03-03T04:23:36;98349.77;;;5.34;66.02
61361;BME280;47232;47.506;18.936;2023-03-03T04:26:06;98347.34;;;5.38;66.00
61361;BME280;47232;47.506;18.936;2023-03-03T04:28:32;98342.40;;;5.43;66.06
61361;BME280;47232;47.506;18.936;2023-03-03T04:30:58;98339.43;;;5.48;66.08
61361;BME280;47232;47.506;18.936;2023-03-03T04:33:23;98343.77;;;5.55;66.19
61361;BME280;47232;47.506;18.936;2023-03-03T04:35:49;98342.61;;;5.62;66.24
61361;BME280;47232;47.506;18.936;2023-03-03T04:38:15;98342.81;;;5.70;66.42
61361;BME280;47232;47.506;18.936;2023-03-03T04:40:41;98340.30;;;5.79;66.26
61361;BME280;47232;47.506;18.936;2023-03-03T04:43:06;98338.68;;;5.87;66.31
61361;BME280;47232;47.506;18.936;2023-03-03T04:45:32;98340.91;;;5.94;66.14
61361;BME280;47232;47.506;18.936;2023-03-03T04:47:57;98339.32;;;6.00;66.29
61361;BME280;47232;47.506;18.936;2023-03-03T04:50:24;98338.42;;;6.05;65.87
61361;BME280;47232;47.506;18.936;2023-03-03T04:52:50;98340.09;;;6.08;65.80
61361;BME280;47232;47.506;18.936;2023-03-03T04:55:15;98338.36;;;6.11;65.83
61361;BME280;47232;47.506;18.936;2023-03-03T04:57:41;98338.08;;;6.12;65.76
61361;BME280;47232;47.506;18.936;2023-03-03T05:00:08;98340.11;;;6.13;65.53
61361;BME280;47232;47.506;18.936;2023-03-03T05:02:37;98342.58;;;6.13;65.12
61361;BME280;47232;47.506;18.936;2023-03-03T05:05:02;98341.23;;;6.13;65.30
61361;BME280;47232;47.506;18.936;2023-03-03T05:07:28;98345.17;;;6.13;65.32
61361;BME280;47232;47.506;18.936;2023-03-03T05:09:54;98343.93;;;6.11;65.24
61361;BME280;47232;47.506;18.936;2023-03-03T05:12:47;98342.77;;;6.09;65.21
61361;BME280;47232;47.506;18.936;2023-03-03T05:15:53;98341.97;;;6.08;64.93
61361;BME280;47232;47.506;18.936;2023-03-03T05:18:21;98338.61;;;6.07;65.22
61361;BME280;47232;47.506;18.936;2023-03-03T05:20:48;98341.47;;;6.06;64.91
61361;BME280;47232;47.506;18.936;2023-03-03T05:23:17;98340.88;;;6.04;64.99
61361;BME280;47232;47.506;18.936;2023-03-03T05:26:22;98341.21;;;6.03;64.91
61361;BME280;47232;47.506;18.936;2023-03-03T05:29:28;98344.48;;;6.02;64.79
61361;BME280;47232;47.506;18.936;2023-03-03T05:32:34;98343.91;;;6.00;64.67
61361;BME280;47232;47.506;18.936;2023-03-03T05:35:22;98347.81;;;5.99;64.83
61361;BME280;47232;47.506;18.936;2023-03-03T05:38:07;98348.90;;;5.97;64.83
61361;BME280;47232;47.506;18.936;2023-03-03T05:40:38;98352.05;;;5.97;64.58
61361;BME280;47232;47.506;18.936;2023-03-03T05:43:09;98358.41;;;5.97;64.79
61361;BME280;47232;47.506;18.936;2023-03-03T05:45:39;98359.27;;;5.97;64.57
61361;BME280;47232;47.506;18.936;2023-03-03T05:48:09;98359.15;;;5.97;64.73
61361;BME280;47232;47.506;18.936;2023-03-03T05:50:45;98358.20;;;5.96;64.66
61361;BME280;47232;47.506;18.936;2023-03-03T05:53:34;98361.78;;;5.96;64.99
61361;BME280;47232;47.506;18.936;2023-03-03T05:56:01;98361.73;;;5.96;64.65
61361;BME280;47232;47.506;18.936;2023-03-03T05:58:26;98360.88;;;5.96;64.64
61361;BME280;47232;47.506;18.936;2023-03-03T06:00:52;98361.52;;;5.97;64.72
61361;BME280;47232;47.506;18.936;2023-03-03T06:03:18;98365.30;;;5.97;64.66
61361;BME280;47232;47.506;18.936;2023-03-03T06:05:43;98365.19;;;5.98;64.78
61361;BME280;47232;47.506;18.936;2023-03-03T06:08:38;98366.54;;;5.98;64.69
61361;BME280;47232;47.506;18.936;2023-03-03T06:11:03;98364.77;;;5.99;64.70
61361;BME280;47232;47.506;18.936;2023-03-03T06:14:08;98364.48;;;6.01;64.58
61361;BME280;47232;47.506;18.936;2023-03-03T06:16:34;98365.16;;;6.03;64.44
61361;BME280;47232;47.506;18.936;2023-03-03T06:19:04;98366.16;;;6.05;64.62
61361;BME280;47232;47.506;18.936;2023-03-03T06:21:31;98363.95;;;6.07;64.70
61361;BME280;47232;47.506;18.936;2023-03-03T06:23:56;98367.13;;;6.11;64.41
61361;BME280;47232;47.506;18.936;2023-03-03T06:26:22;98366.58;;;6.12;64.51
61361;BME280;47232;47.506;18.936;2023-03-03T06:28:47;98371.74;;;6.16;64.63
61361;BME280;47232;47.506;18.936;2023-03-03T06:31:14;98374.11;;;6.20;64.60
61361;BME280;47232;47.506;18.936;2023-03-03T06:33:39;98373.49;;;6.24;64.75
61361;BME280;47232;47.506;18.936;2023-03-03T06:36:10;98367.36;;;6.27;64.83
61361;BME280;47232;47.506;18.936;2023-03-03T06:38:36;98371.07;;;6.31;64.41
61361;BME280;47232;47.506;18.936;2023-03-03T06:41:01;98374.30;;;6.35;64.31
61361;BME280;47232;47.506;18.936;2023-03-03T06:43:31;98376.77;;;6.38;64.10
61361;BME280;47232;47.506;18.936;2023-03-03T06:45:57;98373.64;;;6.43;64.10
61361;BME280;47232;47.506;18.936;2023-03-03T06:48:23;98374.95;;;6.47;64.54
61361;BME280;47232;47.506;18.936;2023-03-03T06:50:52;98378.27;;;6.52;64.24
61361;BME280;47232;47.506;18.936;2023-03-03T06:53:18;98387.58;;;6.57;64.14
61361;BME280;47232;47.506;18.936;2023-03-03T06:56:04;98388.23;;;6.62;64.02
61361;BME280;47232;47.506;18.936;2023-03-03T06:58:33;98390.64;;;6.66;64.11
61361;BME280;47232;47.506;18.936;2023-03-03T07:01:01;98389.22;;;6.70;64.34
61361;BME280;47232;47.506;18.936;2023-03-03T07:03:32;98391.59;;;6.74;64.34
61361;BME280;47232;47.506;18.936;2023-03-03T07:05:59;98391.38;;;6.78;64.37
61361;BME280;47232;47.506;18.936;2023-03-03T07:08:25;98397.59;;;6.82;64.17
61361;BME280;47232;47.506;18.936;2023-03-03T07:10:54;98395.36;;;6.86;64.86
61361;BME280;47232;47.506;18.936;2023-03-03T07:13:22;98397.62;;;6.90;64.76
61361;BME280;47232;47.506;18.936;2023-03-03T07:15:49;98402.89;;;6.93;64.86
61361;BME280;47232;47.506;18.936;2023-03-03T07:18:24;98406.98;;;6.96;64.88
61361;BME280;47232;47.506;18.936;2023-03-03T07:20:50;98408.55;;;6.99;64.88
61361;BME280;47232;47.506;18.936;2023-03-03T07:25:46;98415.73;;;7.03;64.87
61361;BME280;47232;47.506;18.936;2023-03-03T07:28:23;98414.88;;;7.05;64.23
61361;BME280;47232;47.506;18.936;2023-03-03T07:30:49;98419.81;;;7.08;64.13
61361;BME280;47232;47.506;18.936;2023-03-03T07:35:47;98420.13;;;7.18;63.40
61361;BME280;47232;47.506;18.936;2023-03-03T07:40:38;98425.64;;;7.32;63.88
61361;BME280;47232;47.506;18.936;2023-03-03T07:43:42;98424.34;;;7.41;63.65
61361;BME280;47232;47.506;18.936;2023-03-03T07:48:33;98425.37;;;7.57;62.88
61361;BME280;47232;47.506;18.936;2023-03-03T07:51:02;98423.12;;;7.66;62.89
61361;BME280;47232;47.506;18.936;2023-03-03T07:53:40;98423.52;;;7.72;62.50
61361;BME280;47232;47.506;18.936;2023-03-03T07:59:23;98426.76;;;7.78;62.10
61361;BME280;47232;47.506;18.936;2023-03-03T09:55:15;98429.66;;;10.01;56.27
61361;BME280;47232;47.506;18.936;2023-03-03T10:13:58;98424.39;;;10.92;53.96
61361;BME280;47232;47.506;18.936;2023-03-03T10:44:36;98400.11;;;12.59;49.98
61361;BME280;47232;47.506;18.936;2023-03-03T11:26:24;98365.02;;;14.81;44.64
61361;BME280;47232;47.506;18.936;2023-03-03T11:41:13;98340.59;;;15.16;43.27
61361;BME280;47232;47.506;18.936;2023-03-03T12:29:10;98292.17;;;17.00;38.50
61361;BME280;47232;47.506;18.936;2023-03-03T12:45:28;98298.23;;;16.44;38.09
61361;BME280;47232;47.506;18.936;2023-03-03T13:14:15;98282.50;;;17.97;36.45
61361;BME280;47232;47.506;18.936;2023-03-03T14:43:45;98235.67;;;17.59;32.97
61361;BME280;47232;47.506;18.936;2023-03-03T15:56:55;98255.34;;;24.27;22.97
61361;BME280;47232;47.506;18.936;2023-03-03T16:06:29;98265.18;;;23.80;22.80
61361;BME280;47232;47.506;18.936;2023-03-03T17:49:15;98322.91;;;9.49;39.91
61361;BME280;47232;47.506;18.936;2023-03-03T22:40:42;98368.66;;;4.26;48.86
61361;BME280;47232;47.506;18.936;2023-03-03T23:19:19;98368.27;;;3.71;49.87
61361;BME280;47232;47.506;18.936;2023-03-03T23:22:49;98366.82;;;3.64;49.85
61361;BME280;47232;47.506;18.936;2023-03-03T23:29:07;98359.47;;;3.57;50.16
61361;BME280;47232;47.506;18.936;2023-03-03T23:53:27;98356.35;;;3.40;50.23
61361;BME280;47232;47.506;18.936;2023-03-03T23:59:47;98351.90;;;3.29;50.37
